Time;durP1;ratioP1;P1;durP2;ratioP2;P2;SDS_P1;SDS_P2;PMS_P1;PMS_P2;Temp;Humidity;BMP_temperature;BMP_pressure;BME280_temperature;BME280_humidity;BME280_pressure;Samples;Min_cycle;Max_cycle;Signal;HPM_P1;HPM_P2
2023/05/04 00:00:07;;;;;;;9.63;6.25;;;;;;;;;;5011531;28;20180;-61
2023/05/04 00:02:33;;;;;;;12.13;5.57;;;;;;;;;;5010391;28;20111;-61
2023/05/04 00:04:58;;;;;;;8.90;5.70;;;;;;;;;;5029852;28;20468;-61
2023/05/04 00:07:24;;;;;;;9.88;5.10;;;;;;;;;;5029341;28;20562;-61
2023/05/04 00:09:49;;;;;;;12.30;5.50;;;;;;;;;;5025704;28;20115;-61
2023/05/04 00:12:15;;;;;;;9.15;5.53;;;;;;;;;;5023349;28;20026;-61
2023/05/04 00:14:41;;;;;;;9.77;5.38;;;;;;;;;;5010388;28;20105;-61
2023/05/04 00:17:06;;;;;;;8.77;5.05;;;;;;;;;;5015332;28;20362;-66
2023/05/04 00:19:38;;;;;;;11.23;5.10;;;;;;;;;;5017897;28;20965;-61
2023/05/04 00:22:03;;;;;;;9.48;5.10;;;;;;;;;;5020058;28;20033;-61
2023/05/04 00:24:28;;;;;;;8.93;5.47;;;;;;;;;;5018664;28;20120;-60
2023/05/04 00:26:54;;;;;;;10.63;5.32;;;;;;;;;;5025501;28;20104;-61
2023/05/04 00:29:19;;;;;;;9.75;5.30;;;;;;;;;;5010889;28;20045;-61
2023/05/04 00:31:45;;;;;;;10.98;5.63;;;;;;;;;;5016993;28;20041;-61
2023/05/04 00:34:10;;;;;;;10.57;5.28;;;;;;;;;;5024143;28;20473;-60
2023/05/04 00:36:36;;;;;;;10.32;5.18;;;;;;;;;;5024766;28;20048;-60
2023/05/04 00:39:02;;;;;;;11.25;5.18;;;;;;;;;;5017028;28;20053;-60
2023/05/04 00:41:27;;;;;;;12.40;5.35;;;;;;;;;;5028547;28;20033;-61
2023/05/04 00:43:53;;;;;;;13.32;5.60;;;;;;;;;;5025596;28;20068;-61
2023/05/04 00:46:18;;;;;;;9.48;5.50;;;;;;;;;;5025753;28;20031;-61
2023/05/04 00:48:46;;;;;;;10.00;5.50;;;;;;;;;;5023951;28;20167;-60
2023/05/04 00:51:13;;;;;;;9.50;5.57;;;;;;;;;;5017150;28;20042;-61
2023/05/04 00:53:40;;;;;;;10.60;5.82;;;;;;;;;;5014234;28;20026;-61
2023/05/04 00:56:06;;;;;;;10.13;5.60;;;;;;;;;;5029959;28;20072;-60
2023/05/04 00:58:32;;;;;;;9.90;5.55;;;;;;;;;;5014317;28;20064;-60
2023/05/04 01:00:58;;;;;;;13.85;5.50;;;;;;;;;;5034020;28;20037;-61
2023/05/04 01:03:25;;;;;;;10.88;5.80;;;;;;;;;;5023844;28;20463;-61
2023/05/04 01:06:14;;;;;;;12.70;5.30;;;;;;;;;;5019177;28;20037;-62
2023/05/04 01:08:45;;;;;;;11.60;5.45;;;;;;;;;;5012226;28;20045;-61
2023/05/04 01:11:18;;;;;;;;;;;;;;;;;;5030008;28;20446;-59
2023/05/04 01:13:45;;;;;;;10.90;5.40;;;;;;;;;;5030302;28;19912;-61
2023/05/04 01:16:11;;;;;;;10.98;5.90;;;;;;;;;;5016003;28;20087;-62
2023/05/04 01:18:36;;;;;;;10.00;5.43;;;;;;;;;;5028520;28;20033;-60
2023/05/04 01:21:02;;;;;;;14.68;5.60;;;;;;;;;;5014579;28;20476;-61
2023/05/04 01:23:27;;;;;;;9.13;5.85;;;;;;;;;;5020760;28;20033;-60
2023/05/04 01:26:04;;;;;;;9.52;5.72;;;;;;;;;;5014079;28;20041;-60
2023/05/04 01:28:45;;;;;;;11.70;5.68;;;;;;;;;;5026379;28;20475;-60
2023/05/04 01:31:14;;;;;;;11.15;5.50;;;;;;;;;;5014892;28;20125;-62
2023/05/04 01:33:40;;;;;;;7.95;5.53;;;;;;;;;;5021052;28;20049;-61
2023/05/04 01:36:06;;;;;;;11.48;5.47;;;;;;;;;;5012563;28;20091;-62
2023/05/04 01:38:32;;;;;;;10.38;5.35;;;;;;;;;;5030848;28;20139;-62
2023/05/04 01:40:57;;;;;;;10.68;5.32;;;;;;;;;;5029291;28;20089;-61
2023/05/04 01:43:23;;;;;;;9.50;5.80;;;;;;;;;;5013400;28;20587;-61
2023/05/04 01:45:48;;;;;;;8.95;5.50;;;;;;;;;;5014987;28;20137;-61
2023/05/04 01:48:14;;;;;;;14.07;5.85;;;;;;;;;;5014415;28;20116;-61
2023/05/04 01:50:39;;;;;;;11.43;5.63;;;;;;;;;;5012805;28;20053;-62
2023/05/04 01:53:05;;;;;;;12.18;5.82;;;;;;;;;;5026978;28;20036;-62
2023/05/04 01:55:30;;;;;;;10.00;5.80;;;;;;;;;;5018746;28;20046;-62
2023/05/04 01:57:56;;;;;;;10.15;5.38;;;;;;;;;;5016481;28;20048;-60
2023/05/04 02:00:21;;;;;;;10.68;5.70;;;;;;;;;;5017330;28;20116;-60
2023/05/04 02:02:47;;;;;;;12.18;6.28;;;;;;;;;;5032445;28;20036;-62
2023/05/04 02:05:12;;;;;;;11.57;5.80;;;;;;;;;;5016090;28;20029;-63
2023/05/04 02:07:37;;;;;;;9.70;5.35;;;;;;;;;;5026792;28;20484;-60
2023/05/04 02:10:03;;;;;;;11.23;5.60;;;;;;;;;;5013584;28;20033;-60
2023/05/04 02:12:28;;;;;;;12.15;5.55;;;;;;;;;;5012441;28;20038;-60
2023/05/04 02:14:54;;;;;;;8.75;5.43;;;;;;;;;;5016981;28;20032;-60
2023/05/04 02:17:19;;;;;;;9.52;5.35;;;;;;;;;;5015009;28;20107;-60
2023/05/04 02:19:45;;;;;;;13.20;5.85;;;;;;;;;;5024725;28;20477;-61
2023/05/04 02:22:10;;;;;;;9.63;5.90;;;;;;;;;;5016718;28;20030;-60
2023/05/04 02:24:36;;;;;;;12.63;5.40;;;;;;;;;;5017114;28;20630;-60
2023/05/04 02:27:01;;;;;;;11.30;5.75;;;;;;;;;;5033770;28;20037;-61
2023/05/04 02:29:26;;;;;;;10.82;5.57;;;;;;;;;;5030924;28;20029;-61
2023/05/04 02:31:52;;;;;;;11.68;5.70;;;;;;;;;;5030242;28;20117;-61
2023/05/04 02:34:17;;;;;;;11.85;5.75;;;;;;;;;;5016297;28;20503;-61
2023/05/04 02:36:43;;;;;;;10.88;5.78;;;;;;;;;;5021880;28;20025;-62
2023/05/04 02:39:08;;;;;;;8.95;5.70;;;;;;;;;;5030645;28;20487;-61
2023/05/04 02:41:33;;;;;;;11.48;6.10;;;;;;;;;;5031967;28;20030;-62
2023/05/04 02:43:59;;;;;;;11.55;5.70;;;;;;;;;;5028339;28;20110;-61
2023/05/04 02:46:25;;;;;;;11.35;6.00;;;;;;;;;;5030697;28;20108;-61
2023/05/04 02:48:51;;;;;;;11.82;5.72;;;;;;;;;;5032085;28;20032;-61
2023/05/04 02:51:18;;;;;;;10.30;5.93;;;;;;;;;;5030669;28;20034;-60
2023/05/04 02:53:43;;;;;;;9.70;5.72;;;;;;;;;;5031369;28;20467;-60
2023/05/04 02:56:08;;;;;;;9.48;5.82;;;;;;;;;;5027378;28;20032;-60
2023/05/04 02:58:34;;;;;;;10.32;6.20;;;;;;;;;;5018196;28;20058;-61
2023/05/04 03:00:59;;;;;;;15.55;6.25;;;;;;;;;;5026721;28;20044;-60
2023/05/04 03:03:25;;;;;;;13.45;6.13;;;;;;;;;;5028109;28;20539;-60
2023/05/04 03:05:50;;;;;;;12.80;6.60;;;;;;;;;;5010673;28;20556;-60
2023/05/04 03:08:16;;;;;;;12.43;6.05;;;;;;;;;;5021446;28;20081;-60
2023/05/04 03:10:41;;;;;;;9.98;6.32;;;;;;;;;;5027924;28;20033;-60
2023/05/04 03:13:06;;;;;;;11.80;6.32;;;;;;;;;;5013187;28;20105;-60
2023/05/04 03:15:32;;;;;;;10.88;6.57;;;;;;;;;;5011993;28;20068;-61
2023/05/04 03:17:58;;;;;;;9.48;6.25;;;;;;;;;;5020527;28;20037;-60
2023/05/04 03:20:23;;;;;;;10.20;5.93;;;;;;;;;;5029757;28;20087;-61
2023/05/04 03:22:49;;;;;;;15.50;6.57;;;;;;;;;;5028702;28;20030;-60
2023/05/04 03:25:14;;;;;;;11.07;6.03;;;;;;;;;;5026177;28;20040;-61
2023/05/04 03:27:39;;;;;;;10.77;6.32;;;;;;;;;;5031547;28;20033;-61
2023/05/04 03:30:06;;;;;;;10.30;6.10;;;;;;;;;;5031249;28;20022;-60
2023/05/04 03:32:31;;;;;;;11.18;6.40;;;;;;;;;;5031783;28;20476;-61
2023/05/04 03:34:56;;;;;;;12.60;6.60;;;;;;;;;;5024467;28;20041;-61
2023/05/04 03:37:22;;;;;;;13.13;6.50;;;;;;;;;;5022799;28;20091;-60
2023/05/04 03:39:48;;;;;;;14.15;6.28;;;;;;;;;;5021750;28;20034;-61
2023/05/04 03:42:13;;;;;;;11.10;6.00;;;;;;;;;;5012742;28;20571;-61
2023/05/04 03:44:38;;;;;;;13.25;6.70;;;;;;;;;;5021741;28;20021;-62
2023/05/04 03:47:04;;;;;;;14.40;6.55;;;;;;;;;;5027083;28;20055;-61
2023/05/04 03:49:30;;;;;;;11.73;6.82;;;;;;;;;;5025110;28;20040;-61
2023/05/04 03:51:55;;;;;;;12.20;6.80;;;;;;;;;;5025429;28;20637;-61
2023/05/04 03:54:21;;;;;;;10.52;6.47;;;;;;;;;;5011986;28;20030;-60
2023/05/04 03:56:46;;;;;;;10.98;6.57;;;;;;;;;;5009986;28;20100;-60
2023/05/04 03:59:12;;;;;;;14.05;6.82;;;;;;;;;;5010366;28;20033;-60
2023/05/04 04:01:37;;;;;;;10.55;6.43;;;;;;;;;;5030055;28;20527;-60
2023/05/04 04:04:02;;;;;;;13.27;6.82;;;;;;;;;;5031744;28;20029;-62
2023/05/04 04:06:28;;;;;;;12.32;6.80;;;;;;;;;;5022793;28;20049;-61
2023/05/04 04:08:53;;;;;;;12.07;6.60;;;;;;;;;;5029671;28;20033;-62
2023/05/04 04:11:19;;;;;;;13.00;6.65;;;;;;;;;;5022393;28;20534;-61
2023/05/04 04:13:44;;;;;;;12.52;6.97;;;;;;;;;;5025039;28;20038;-61
2023/05/04 04:16:09;;;;;;;13.90;6.80;;;;;;;;;;5024379;28;20455;-60
2023/05/04 04:18:35;;;;;;;14.60;7.25;;;;;;;;;;5026606;28;20036;-63
2023/05/04 04:21:00;;;;;;;13.95;6.95;;;;;;;;;;5024633;28;20464;-62
2023/05/04 04:23:25;;;;;;;11.15;6.70;;;;;;;;;;5031676;28;20029;-62
2023/05/04 04:25:52;;;;;;;12.18;6.60;;;;;;;;;;5027588;28;20056;-60
2023/05/04 04:28:18;;;;;;;12.65;7.07;;;;;;;;;;5025500;28;20029;-62
2023/05/04 04:30:43;;;;;;;11.10;6.47;;;;;;;;;;5010434;28;20507;-60
2023/05/04 04:33:09;;;;;;;16.15;7.35;;;;;;;;;;5020029;28;20061;-60
2023/05/04 04:35:34;;;;;;;13.00;6.45;;;;;;;;;;5015651;28;20113;-61
2023/05/04 04:38:00;;;;;;;15.02;7.22;;;;;;;;;;5010758;28;20054;-62
2023/05/04 04:40:25;;;;;;;11.60;6.85;;;;;;;;;;5026905;28;20038;-61
2023/05/04 04:42:51;;;;;;;15.50;7.07;;;;;;;;;;5023705;28;20086;-61
2023/05/04 04:45:17;;;;;;;13.73;6.65;;;;;;;;;;5017883;28;20052;-61
2023/05/04 04:47:42;;;;;;;13.55;7.18;;;;;;;;;;5029141;28;20391;-62
2023/05/04 04:50:08;;;;;;;12.02;6.57;;;;;;;;;;5024486;28;20034;-61
2023/05/04 04:52:33;;;;;;;11.98;6.93;;;;;;;;;;5019496;28;20061;-61
2023/05/04 04:55:00;;;;;;;12.75;7.22;;;;;;;;;;5019909;28;20598;-62
2023/05/04 04:57:25;;;;;;;19.15;7.00;;;;;;;;;;5030809;28;20045;-62
2023/05/04 04:59:52;;;;;;;12.88;7.03;;;;;;;;;;5028069;28;20045;-62
2023/05/04 05:02:18;;;;;;;15.18;7.53;;;;;;;;;;5030987;28;20040;-62
2023/05/04 05:04:45;;;;;;;12.82;7.78;;;;;;;;;;5028388;28;20037;-62
2023/05/04 05:07:10;;;;;;;15.45;6.50;;;;;;;;;;5031516;28;20044;-62
2023/05/04 05:09:36;;;;;;;14.38;7.18;;;;;;;;;;5030731;28;20033;-61
2023/05/04 05:12:03;;;;;;;11.10;7.10;;;;;;;;;;5030431;28;20057;-62
2023/05/04 05:14:30;;;;;;;13.13;6.88;;;;;;;;;;5028190;28;20480;-61
2023/05/04 05:16:56;;;;;;;13.27;6.97;;;;;;;;;;5029602;28;20037;-62
2023/05/04 05:19:21;;;;;;;11.32;6.90;;;;;;;;;;5029654;28;20396;-59
2023/05/04 05:21:48;;;;;;;10.85;6.90;;;;;;;;;;5039542;28;20458;-64
2023/05/04 05:24:13;;;;;;;11.60;6.57;;;;;;;;;;5034808;28;20129;-66
2023/05/04 05:26:39;;;;;;;14.60;7.10;;;;;;;;;;5032907;28;20112;-66
2023/05/04 05:29:04;;;;;;;11.57;6.72;;;;;;;;;;5032514;28;20384;-62
2023/05/04 05:31:31;;;;;;;10.43;7.65;;;;;;;;;;5032996;28;20048;-63
2023/05/04 05:33:57;;;;;;;14.98;6.97;;;;;;;;;;5033448;28;20068;-62
2023/05/04 05:36:22;;;;;;;14.60;6.82;;;;;;;;;;5032717;28;20029;-65
2023/05/04 05:38:48;;;;;;;9.45;6.38;;;;;;;;;;5031502;28;20049;-67
2023/05/04 05:41:14;;;;;;;13.68;6.95;;;;;;;;;;5034052;28;20033;-66
2023/05/04 05:43:40;;;;;;;10.82;6.80;;;;;;;;;;5031083;28;20082;-66
2023/05/04 05:46:06;;;;;;;13.35;7.10;;;;;;;;;;5031507;28;20472;-65
2023/05/04 05:48:33;;;;;;;14.98;6.60;;;;;;;;;;5029657;28;20037;-64
2023/05/04 05:50:59;;;;;;;12.32;6.65;;;;;;;;;;5014775;28;20483;-64
2023/05/04 05:53:24;;;;;;;14.88;6.72;;;;;;;;;;5032501;28;20041;-67
2023/05/04 05:55:49;;;;;;;10.60;6.63;;;;;;;;;;5027658;28;20037;-63
2023/05/04 05:58:15;;;;;;;11.38;6.60;;;;;;;;;;5028439;28;20419;-68
2023/05/04 06:00:41;;;;;;;10.50;6.38;;;;;;;;;;5033204;28;20037;-64
2023/05/04 06:03:06;;;;;;;13.55;6.47;;;;;;;;;;5031892;28;20104;-67
2023/05/04 06:05:35;;;;;;;12.07;6.38;;;;;;;;;;4999336;28;20044;-66
2023/05/04 06:08:01;;;;;;;9.82;6.55;;;;;;;;;;5031338;28;20178;-65
2023/05/04 06:10:26;;;;;;;12.35;7.28;;;;;;;;;;5032660;28;20452;-68
2023/05/04 06:12:52;;;;;;;11.18;6.70;;;;;;;;;;5029572;28;20055;-66
2023/05/04 06:15:18;;;;;;;12.93;6.70;;;;;;;;;;5033467;28;20051;-66
2023/05/04 06:17:43;;;;;;;16.65;6.82;;;;;;;;;;5030664;28;20037;-66
2023/05/04 06:20:09;;;;;;;12.00;6.47;;;;;;;;;;5033128;28;20025;-67
2023/05/04 06:22:34;;;;;;;11.10;6.18;;;;;;;;;;5031710;28;20087;-68
2023/05/04 06:24:59;;;;;;;12.30;6.60;;;;;;;;;;5033118;28;20077;-67
2023/05/04 06:27:27;;;;;;;11.50;6.70;;;;;;;;;;5029984;28;20036;-66
2023/05/04 06:29:53;;;;;;;10.77;6.38;;;;;;;;;;5031557;28;20026;-70
2023/05/04 06:32:18;;;;;;;9.52;6.60;;;;;;;;;;5031140;28;20111;-68
2023/05/04 06:34:43;;;;;;;11.70;6.45;;;;;;;;;;5032690;28;20025;-66
2023/05/04 06:37:10;;;;;;;12.85;6.55;;;;;;;;;;5030126;28;20038;-67
2023/05/04 06:39:35;;;;;;;10.02;7.13;;;;;;;;;;5030295;28;20037;-64
2023/05/04 06:42:02;;;;;;;11.57;6.55;;;;;;;;;;5031912;28;20029;-67
2023/05/04 06:44:27;;;;;;;10.32;5.90;;;;;;;;;;5031795;28;20030;-67
2023/05/04 06:46:53;;;;;;;15.38;6.07;;;;;;;;;;5032338;28;20495;-65
2023/05/04 06:49:18;;;;;;;16.27;6.80;;;;;;;;;;5032380;28;20040;-65
2023/05/04 06:51:44;;;;;;;13.65;6.60;;;;;;;;;;5030829;28;20038;-65
2023/05/04 06:54:10;;;;;;;12.32;6.72;;;;;;;;;;5026553;28;20118;-64
2023/05/04 06:56:37;;;;;;;10.70;6.30;;;;;;;;;;5013677;28;20419;-66
2023/05/04 06:59:04;;;;;;;15.75;6.60;;;;;;;;;;5030677;28;20153;-65
2023/05/04 07:01:30;;;;;;;13.18;6.57;;;;;;;;;;5032764;28;20354;-68
2023/05/04 07:03:57;;;;;;;9.55;6.25;;;;;;;;;;5029909;28;20503;-65
2023/05/04 07:06:25;;;;;;;12.73;6.82;;;;;;;;;;5032430;28;20064;-68
2023/05/04 07:08:50;;;;;;;9.30;6.35;;;;;;;;;;5031282;28;20607;-65
2023/05/04 07:11:16;;;;;;;10.73;6.65;;;;;;;;;;5031622;28;20074;-65
2023/05/04 07:13:42;;;;;;;12.13;6.18;;;;;;;;;;5029405;28;20059;-65
2023/05/04 07:16:07;;;;;;;11.35;5.93;;;;;;;;;;5031682;28;20064;-64
2023/05/04 07:18:33;;;;;;;12.32;6.47;;;;;;;;;;5029836;28;20387;-64
2023/05/04 07:20:58;;;;;;;12.70;6.50;;;;;;;;;;5029699;28;20061;-66
2023/05/04 07:23:24;;;;;;;11.35;6.50;;;;;;;;;;5028029;28;20030;-65
2023/05/04 07:25:50;;;;;;;10.40;6.57;;;;;;;;;;5029403;28;20571;-64
2023/05/04 07:28:15;;;;;;;12.88;6.63;;;;;;;;;;5026875;28;20532;-66
2023/05/04 07:30:41;;;;;;;12.50;6.43;;;;;;;;;;5031702;28;20128;-63
2023/05/04 07:33:06;;;;;;;10.57;6.70;;;;;;;;;;5028251;28;20065;-63
2023/05/04 07:35:31;;;;;;;10.93;6.60;;;;;;;;;;5030934;28;20025;-63
2023/05/04 07:37:57;;;;;;;10.90;6.35;;;;;;;;;;5027969;28;20450;-63
2023/05/04 07:40:22;;;;;;;11.25;6.20;;;;;;;;;;5030758;28;20108;-66
2023/05/04 07:42:48;;;;;;;8.52;6.20;;;;;;;;;;5026109;28;20075;-65
2023/05/04 07:45:15;;;;;;;11.20;6.22;;;;;;;;;;5031437;28;20065;-65
2023/05/04 07:47:41;;;;;;;19.50;6.80;;;;;;;;;;5029442;28;20047;-64
2023/05/04 07:50:07;;;;;;;9.55;6.05;;;;;;;;;;5031021;28;20025;-65
2023/05/04 07:52:32;;;;;;;10.60;6.40;;;;;;;;;;5030552;28;20106;-64
2023/05/04 07:54:57;;;;;;;11.43;5.97;;;;;;;;;;5029879;28;20369;-65
2023/05/04 07:57:23;;;;;;;12.57;6.60;;;;;;;;;;5030053;28;20029;-65
2023/05/04 07:59:52;;;;;;;11.02;6.80;;;;;;;;;;5031035;28;20034;-64
2023/05/04 08:02:17;;;;;;;15.98;6.47;;;;;;;;;;5031199;28;20049;-66
2023/05/04 08:04:43;;;;;;;10.57;6.70;;;;;;;;;;5031370;28;20025;-62
2023/05/04 08:07:08;;;;;;;12.75;6.22;;;;;;;;;;5028671;28;20060;-63
2023/05/04 08:09:34;;;;;;;12.90;6.80;;;;;;;;;;5029693;28;20037;-63
2023/05/04 08:12:00;;;;;;;17.30;6.88;;;;;;;;;;5027968;28;20503;-70
2023/05/04 08:14:25;;;;;;;14.98;6.65;;;;;;;;;;5024933;28;20033;-69
2023/05/04 08:16:50;;;;;;;8.88;6.18;;;;;;;;;;5015677;28;20472;-65
2023/05/04 08:19:17;;;;;;;12.05;6.40;;;;;;;;;;5029965;28;20065;-66
2023/05/04 08:21:43;;;;;;;12.65;6.32;;;;;;;;;;5031671;28;20040;-69
2023/05/04 08:24:08;;;;;;;12.15;6.68;;;;;;;;;;5028025;28;20120;-67
2023/05/04 08:26:37;;;;;;;10.77;6.40;;;;;;;;;;5030494;28;20033;-68
2023/05/04 08:29:06;;;;;;;11.65;6.30;;;;;;;;;;5027493;28;20503;-66
2023/05/04 08:31:32;;;;;;;13.57;6.60;;;;;;;;;;5031713;28;20039;-68
2023/05/04 08:33:58;;;;;;;11.50;6.32;;;;;;;;;;5029584;28;20422;-68
2023/05/04 08:36:23;;;;;;;13.20;6.57;;;;;;;;;;5030544;28;20071;-68
2023/05/04 08:38:49;;;;;;;11.45;6.13;;;;;;;;;;5026923;28;20132;-66
2023/05/04 08:41:15;;;;;;;9.68;6.20;;;;;;;;;;5029321;28;20029;-67
2023/05/04 08:43:42;;;;;;;9.18;5.95;;;;;;;;;;5018438;28;20035;-69
2023/05/04 08:46:09;;;;;;;10.07;6.10;;;;;;;;;;5029824;28;20112;-68
2023/05/04 08:48:35;;;;;;;10.40;6.57;;;;;;;;;;5030986;28;20059;-68
2023/05/04 08:51:03;;;;;;;13.23;6.32;;;;;;;;;;5029541;28;20060;-68
2023/05/04 08:53:30;;;;;;;10.90;6.30;;;;;;;;;;5033327;28;20056;-69
2023/05/04 08:55:58;;;;;;;12.90;7.32;;;;;;;;;;5034214;28;20479;-66
2023/05/04 08:58:24;;;;;;;14.05;6.75;;;;;;;;;;5030876;28;20025;-65
2023/05/04 09:00:50;;;;;;;10.27;6.22;;;;;;;;;;5032663;28;20033;-64
2023/05/04 09:03:17;;;;;;;13.05;6.47;;;;;;;;;;5033517;28;20025;-63
2023/05/04 09:05:45;;;;;;;10.45;6.25;;;;;;;;;;5033821;28;20033;-64
2023/05/04 09:08:10;;;;;;;10.45;6.40;;;;;;;;;;5029026;28;20180;-64
2023/05/04 09:10:35;;;;;;;13.35;6.53;;;;;;;;;;5034844;28;20116;-66
2023/05/04 09:13:01;;;;;;;10.90;6.68;;;;;;;;;;5033534;28;20037;-66
2023/05/04 09:15:26;;;;;;;9.52;6.60;;;;;;;;;;5033220;28;20040;-66
2023/05/04 09:17:55;;;;;;;11.35;6.72;;;;;;;;;;5032509;28;20025;-65
2023/05/04 09:20:20;;;;;;;10.27;6.38;;;;;;;;;;5033447;28;20041;-64
2023/05/04 09:22:45;;;;;;;12.95;6.75;;;;;;;;;;5031180;28;20036;-67
2023/05/04 09:25:12;;;;;;;10.25;6.32;;;;;;;;;;5033467;28;20036;-64
2023/05/04 09:27:42;;;;;;;12.48;6.50;;;;;;;;;;5031103;28;20034;-63
2023/05/04 09:30:08;;;;;;;9.55;6.30;;;;;;;;;;5033553;28;20088;-64
2023/05/04 09:32:47;;;;;;;11.48;6.63;;;;;;;;;;5032505;28;20041;-66
2023/05/04 09:35:13;;;;;;;12.88;6.32;;;;;;;;;;5032387;28;20122;-67
2023/05/04 09:37:45;;;;;;;9.52;6.32;;;;;;;;;;5033922;28;20397;-68
2023/05/04 09:40:12;;;;;;;11.85;6.35;;;;;;;;;;5035423;28;20065;-66
2023/05/04 09:42:38;;;;;;;11.70;5.97;;;;;;;;;;5036136;28;20025;-67
2023/05/04 09:45:07;;;;;;;11.40;6.28;;;;;;;;;;5033624;28;20039;-68
2023/05/04 09:47:40;;;;;;;10.30;6.33;;;;;;;;;;5032728;28;20034;-65
2023/05/04 09:50:24;;;;;;;10.70;6.20;;;;;;;;;;5033259;28;20267;-67
2023/05/04 09:52:49;;;;;;;9.88;6.03;;;;;;;;;;5038063;28;20163;-67
2023/05/04 09:55:17;;;;;;;10.43;5.82;;;;;;;;;;5024693;28;20097;-67
2023/05/04 09:57:44;;;;;;;14.00;5.40;;;;;;;;;;5014136;28;20044;-67
2023/05/04 10:00:13;;;;;;;10.68;5.70;;;;;;;;;;5028224;28;20041;-67
2023/05/04 10:02:42;;;;;;;10.85;5.93;;;;;;;;;;5033530;28;20468;-67
2023/05/04 10:05:12;;;;;;;16.40;5.95;;;;;;;;;;5031304;28;20029;-64
2023/05/04 10:07:38;;;;;;;8.90;5.80;;;;;;;;;;5033602;28;20044;-64
2023/05/04 10:10:06;;;;;;;11.68;6.25;;;;;;;;;;5027275;28;20472;-64
2023/05/04 10:12:31;;;;;;;9.60;5.72;;;;;;;;;;5033531;28;20037;-65
2023/05/04 10:14:57;;;;;;;13.77;5.47;;;;;;;;;;5031612;28;20052;-66
2023/05/04 10:17:44;;;;;;;9.10;6.05;;;;;;;;;;5033473;28;20061;-76
2023/05/04 10:20:15;;;;;;;10.00;6.20;;;;;;;;;;5031204;28;20038;-64
2023/05/04 10:23:11;;;;;;;10.30;6.00;;;;;;;;;;5033460;28;20033;-64
2023/05/04 10:26:14;;;;;;;14.95;6.38;;;;;;;;;;5030989;28;20113;-67
2023/05/04 10:28:58;;;;;;;11.55;6.00;;;;;;;;;;5028259;28;20124;-65
2023/05/04 10:31:24;;;;;;;11.43;6.18;;;;;;;;;;5033331;28;20025;-64
2023/05/04 10:33:50;;;;;;;10.90;5.90;;;;;;;;;;5029527;28;20076;-66
2023/05/04 10:36:15;;;;;;;10.65;5.85;;;;;;;;;;5032516;28;20033;-67
2023/05/04 10:38:41;;;;;;;9.00;5.53;;;;;;;;;;5028255;28;20104;-67
2023/05/04 10:41:16;;;;;;;12.43;5.80;;;;;;;;;;5031489;28;20043;-65
2023/05/04 10:43:47;;;;;;;13.38;6.20;;;;;;;;;;5028288;28;20029;-63
2023/05/04 10:46:20;;;;;;;8.63;5.95;;;;;;;;;;5029745;28;20060;-64
2023/05/04 10:48:46;;;;;;;11.05;5.70;;;;;;;;;;5031005;28;20124;-64
2023/05/04 10:51:25;;;;;;;9.85;5.18;;;;;;;;;;5030220;28;20067;-66
2023/05/04 10:53:51;;;;;;;10.38;6.15;;;;;;;;;;5032643;28;20399;-66
2023/05/04 10:56:23;;;;;;;8.70;5.78;;;;;;;;;;5029762;28;20060;-64
2023/05/04 10:58:49;;;;;;;11.32;5.10;;;;;;;;;;5032651;28;20030;-66
2023/05/04 11:01:16;;;;;;;9.35;5.15;;;;;;;;;;5029668;28;20021;-66
2023/05/04 11:03:41;;;;;;;8.30;5.00;;;;;;;;;;5030895;28;20455;-66
2023/05/04 11:06:23;;;;;;;9.98;5.47;;;;;;;;;;5024323;28;20056;-67
2023/05/04 11:09:02;;;;;;;9.60;5.50;;;;;;;;;;5032972;28;20113;-65
2023/05/04 11:11:27;;;;;;;11.55;6.03;;;;;;;;;;5030430;28;20037;-67
2023/05/04 11:13:53;;;;;;;8.13;5.15;;;;;;;;;;5031332;28;20445;-64
2023/05/04 11:16:23;;;;;;;8.48;5.40;;;;;;;;;;5027812;28;20036;-65
2023/05/04 11:18:48;;;;;;;7.80;5.57;;;;;;;;;;5032041;28;20044;-69
2023/05/04 11:21:23;;;;;;;7.45;5.00;;;;;;;;;;5029028;28;20033;-67
2023/05/04 11:23:54;;;;;;;7.63;4.93;;;;;;;;;;5032645;28;20026;-66
2023/05/04 11:26:20;;;;;;;6.93;4.78;;;;;;;;;;5029773;28;20065;-67
2023/05/04 11:28:46;;;;;;;9.35;4.63;;;;;;;;;;5031348;28;20068;-66
2023/05/04 11:31:15;;;;;;;7.53;4.45;;;;;;;;;;5013554;28;20480;-69
2023/05/04 11:33:49;;;;;;;10.05;4.95;;;;;;;;;;5039443;28;20091;-69
2023/05/04 11:36:15;;;;;;;8.43;5.03;;;;;;;;;;5022420;28;20034;-70
2023/05/04 11:38:41;;;;;;;7.75;5.57;;;;;;;;;;5011942;28;20041;-67
2023/05/04 11:41:07;;;;;;;8.55;4.30;;;;;;;;;;5020548;28;20080;-67
2023/05/04 11:43:33;;;;;;;6.25;3.80;;;;;;;;;;5020523;28;20093;-69
2023/05/04 11:46:00;;;;;;;6.55;3.80;;;;;;;;;;5017968;28;20041;-67
2023/05/04 11:48:27;;;;;;;8.48;4.32;;;;;;;;;;5018425;28;20466;-69
2023/05/04 11:50:54;;;;;;;6.32;4.10;;;;;;;;;;5027454;28;20073;-68
2023/05/04 11:53:21;;;;;;;5.25;3.97;;;;;;;;;;5017068;28;20026;-67
2023/05/04 11:55:47;;;;;;;8.63;5.50;;;;;;;;;;5016717;28;20465;-68
2023/05/04 11:58:13;;;;;;;9.55;5.20;;;;;;;;;;5018169;28;20064;-68
2023/05/04 12:00:40;;;;;;;10.95;5.00;;;;;;;;;;5027551;28;20455;-68
2023/05/04 12:03:11;;;;;;;7.28;4.45;;;;;;;;;;5018566;28;20048;-67
2023/05/04 12:05:38;;;;;;;6.68;4.80;;;;;;;;;;5030268;28;20068;-69
2023/05/04 12:08:03;;;;;;;8.40;4.25;;;;;;;;;;5017670;28;20080;-69
2023/05/04 12:10:33;;;;;;;7.82;4.40;;;;;;;;;;5031540;28;20436;-68
2023/05/04 12:13:02;;;;;;;8.73;4.70;;;;;;;;;;5020971;28;20048;-65
2023/05/04 12:15:28;;;;;;;9.05;5.05;;;;;;;;;;5023274;28;20045;-68
2023/05/04 12:17:53;;;;;;;7.30;4.97;;;;;;;;;;5025553;28;20029;-68
2023/05/04 12:20:29;;;;;;;7.97;5.30;;;;;;;;;;5028760;28;20040;-69
2023/05/04 12:23:04;;;;;;;6.93;5.13;;;;;;;;;;5019973;28;20033;-69
2023/05/04 12:25:29;;;;;;;7.88;5.07;;;;;;;;;;5029650;28;20034;-69
2023/05/04 12:27:56;;;;;;;7.28;4.50;;;;;;;;;;5020010;28;20060;-69
2023/05/04 12:30:22;;;;;;;5.88;4.20;;;;;;;;;;5018944;28;20034;-68
2023/05/04 12:32:47;;;;;;;6.25;3.50;;;;;;;;;;5030157;28;20034;-67
2023/05/04 12:35:13;;;;;;;7.10;3.30;;;;;;;;;;5021010;28;20041;-69
2023/05/04 12:37:38;;;;;;;6.47;3.20;;;;;;;;;;5023075;28;20042;-66
2023/05/04 12:40:06;;;;;;;5.85;3.30;;;;;;;;;;5018850;28;20078;-68
2023/05/04 12:42:32;;;;;;;5.50;3.13;;;;;;;;;;5028871;28;20029;-68
2023/05/04 12:44:58;;;;;;;4.80;2.92;;;;;;;;;;5023779;28;20048;-66
2023/05/04 12:47:24;;;;;;;4.43;3.10;;;;;;;;;;5034931;28;20036;-65
2023/05/04 12:49:50;;;;;;;5.25;3.17;;;;;;;;;;5033764;28;20034;-68
2023/05/04 12:52:15;;;;;;;6.90;3.20;;;;;;;;;;5019981;28;20120;-68
2023/05/04 12:54:41;;;;;;;5.47;2.85;;;;;;;;;;5030159;28;20041;-66
2023/05/04 12:57:06;;;;;;;6.15;2.70;;;;;;;;;;5020641;28;20135;-68
2023/05/04 12:59:32;;;;;;;4.95;2.80;;;;;;;;;;5019660;28;20038;-68
2023/05/04 13:01:57;;;;;;;6.22;3.03;;;;;;;;;;5024644;28;20041;-67
2023/05/04 13:04:23;;;;;;;6.00;4.00;;;;;;;;;;5037624;28;20029;-68
2023/05/04 13:06:48;;;;;;;8.02;4.00;;;;;;;;;;5034921;28;20396;-66
2023/05/04 13:09:13;;;;;;;5.88;3.50;;;;;;;;;;5032314;28;20029;-68
2023/05/04 13:11:39;;;;;;;5.38;3.90;;;;;;;;;;5034692;28;20053;-68
2023/05/04 13:14:04;;;;;;;7.75;3.70;;;;;;;;;;5032005;28;20116;-68
2023/05/04 13:16:29;;;;;;;7.82;4.60;;;;;;;;;;5032622;28;20037;-69
2023/05/04 13:18:58;;;;;;;9.80;4.55;;;;;;;;;;5033293;28;20029;-68
2023/05/04 13:21:24;;;;;;;8.25;4.82;;;;;;;;;;5033309;28;20065;-65
2023/05/04 13:23:49;;;;;;;6.93;4.03;;;;;;;;;;5034728;28;20060;-65
2023/05/04 13:26:15;;;;;;;7.85;4.53;;;;;;;;;;5032271;28;20037;-65
2023/05/04 13:28:41;;;;;;;8.18;4.57;;;;;;;;;;5034595;28;20034;-68
2023/05/04 13:31:07;;;;;;;5.70;4.25;;;;;;;;;;5031870;28;20029;-66
2023/05/04 13:33:33;;;;;;;5.28;4.40;;;;;;;;;;5033606;28;20510;-68
2023/05/04 13:36:00;;;;;;;8.60;4.03;;;;;;;;;;5031988;28;20033;-67
2023/05/04 13:38:26;;;;;;;7.00;4.18;;;;;;;;;;5033531;28;20049;-69
2023/05/04 13:40:52;;;;;;;7.45;4.20;;;;;;;;;;5031950;28;20087;-68
2023/05/04 13:43:18;;;;;;;5.55;3.78;;;;;;;;;;5033462;28;20033;-70
2023/05/04 13:45:43;;;;;;;6.80;3.63;;;;;;;;;;5033205;28;20042;-67
2023/05/04 13:48:08;;;;;;;9.70;4.10;;;;;;;;;;5033186;28;20121;-68
2023/05/04 13:50:34;;;;;;;8.50;4.60;;;;;;;;;;5022432;28;20029;-67
2023/05/04 13:52:59;;;;;;;8.52;4.10;;;;;;;;;;5033801;28;20543;-68
2023/05/04 13:55:24;;;;;;;6.15;3.78;;;;;;;;;;5032192;28;20502;-69
2023/05/04 13:57:52;;;;;;;5.70;3.70;;;;;;;;;;5034031;28;20034;-69
2023/05/04 14:00:18;;;;;;;6.65;3.90;;;;;;;;;;5029444;28;20224;-69
2023/05/04 14:02:43;;;;;;;6.18;4.03;;;;;;;;;;5034014;28;20464;-70
2023/05/04 14:05:09;;;;;;;9.45;4.30;;;;;;;;;;5031965;28;20045;-68
2023/05/04 14:07:34;;;;;;;5.45;4.18;;;;;;;;;;5032605;28;20040;-68
2023/05/04 14:10:00;;;;;;;6.82;4.30;;;;;;;;;;5031189;28;20033;-66
2023/05/04 14:12:26;;;;;;;7.65;4.30;;;;;;;;;;5033148;28;20033;-68
2023/05/04 14:14:51;;;;;;;10.90;4.63;;;;;;;;;;5032180;28;20102;-68
2023/05/04 14:17:17;;;;;;;6.10;4.50;;;;;;;;;;5032620;28;20034;-67
2023/05/04 14:19:43;;;;;;;8.48;4.32;;;;;;;;;;5031592;28;20021;-68
2023/05/04 14:22:08;;;;;;;6.97;4.50;;;;;;;;;;5018634;28;20061;-67
2023/05/04 14:24:34;;;;;;;8.65;4.00;;;;;;;;;;5012807;28;20484;-67
2023/05/04 14:27:00;;;;;;;7.00;3.78;;;;;;;;;;5024998;28;20080;-67
2023/05/04 14:29:26;;;;;;;11.15;3.97;;;;;;;;;;5018473;28;20460;-67
2023/05/04 14:31:52;;;;;;;7.28;3.50;;;;;;;;;;5030127;28;20039;-67